createdAt,value
2019-05-06T00:00:56.423Z,0.4623
2019-05-06T00:01:55.817Z,0.3769
2019-05-06T00:02:58.204Z,0.1900
2019-05-06T00:04:01.850Z,0.4623
2019-05-06T00:05:04.788Z,0.5451
2019-05-06T00:06:07.798Z,0.5184
2019-05-06T00:07:10.876Z,0.4063
2019-05-06T00:08:14.462Z,0.1900
2019-05-06T00:09:17.914Z,0.3475
2019-05-06T00:10:21.435Z,0.4063
2019-05-06T00:11:24.873Z,0.3903
2019-05-06T00:12:27.919Z,0.4330
2019-05-06T00:13:31.882Z,0.4196
2019-05-06T00:14:34.227Z,0.3903
2019-05-06T00:15:37.938Z,0.3342
2019-05-06T00:16:40.832Z,0.3342
2019-05-06T00:17:44.539Z,0.2888
2019-05-06T00:18:47.953Z,0.2060
2019-05-06T00:19:54.040Z,0.1766
2019-05-06T00:20:59.935Z,0.2754
2019-05-06T00:22:04.731Z,0.2754
2019-05-06T00:23:08.881Z,0.1499
2019-05-06T00:24:14.552Z,0.2754
2019-05-06T00:25:17.883Z,0.3342
2019-05-06T00:26:21.067Z,0.1633
2019-05-06T00:27:24.868Z,0.2327
2019-05-06T00:28:28.140Z,0.2060
2019-05-06T00:29:31.903Z,0.2060
2019-05-06T00:30:35.980Z,0.2327
2019-05-06T00:31:39.856Z,0.1499
2019-05-06T00:32:44.275Z,0.1072
2019-05-06T00:33:48.183Z,0.0912
2019-05-06T00:34:51.261Z,0.1339
2019-05-06T00:35:54.910Z,0.2621
2019-05-06T00:36:58.870Z,0.2060
2019-05-06T00:38:01.835Z,0.1633
2019-05-06T00:39:04.859Z,0.1633
2019-05-06T00:40:07.211Z,0.1900
2019-05-06T00:41:10.184Z,0.3769
2019-05-06T00:42:13.924Z,0.3475
2019-05-06T00:43:17.192Z,0.1900
2019-05-06T00:44:20.170Z,0.2888
2019-05-06T00:45:24.404Z,0.3048
2019-05-06T00:46:27.181Z,0.2621
2019-05-06T00:47:30.833Z,0.1900
2019-05-06T00:48:34.271Z,0.3048
2019-05-06T00:49:37.815Z,0.4623
2019-05-06T00:50:40.900Z,0.7160
2019-05-06T00:51:44.185Z,0.6867
2019-05-06T00:52:47.864Z,0.5318
2019-05-06T00:53:50.857Z,0.5745
2019-05-06T00:54:54.790Z,0.4891
2019-05-06T00:55:58.890Z,0.4330
2019-05-06T00:57:03.621Z,0.4623
2019-05-06T00:58:06.923Z,0.5051
2019-05-06T00:59:10.929Z,0.6306
2019-05-06T01:00:14.909Z,0.5879
2019-05-06T01:01:28.640Z,0.6039
2019-05-06T01:02:26.928Z,0.5745
2019-05-06T01:03:30.188Z,0.5318
2019-05-06T01:04:34.045Z,0.4623
2019-05-06T01:05:37.937Z,0.3903
2019-05-06T01:06:43.860Z,0.2888
2019-05-06T01:07:47.843Z,0.3635
2019-05-06T01:08:50.837Z,0.4196
2019-05-06T01:09:54.245Z,0.3182
2019-05-06T01:10:57.928Z,0.2327
2019-05-06T01:12:03.737Z,0.2327
2019-05-06T01:13:06.825Z,0.1339
2019-05-06T01:14:09.915Z,-0.0076
2019-05-06T01:15:14.283Z,-0.0904
2019-05-06T01:16:22.191Z,-0.1331
2019-05-06T01:17:25.197Z,-0.0210
2019-05-06T01:18:27.212Z,0.0084
2019-05-06T01:19:30.208Z,0.1339
2019-05-06T01:20:33.973Z,0.0084
2019-05-06T01:21:37.186Z,0.0217
2019-05-06T01:22:40.189Z,-0.0210
2019-05-06T01:23:43.709Z,-0.0076
2019-05-06T01:24:47.230Z,0.0351
2019-05-06T01:25:50.199Z,-0.0076
2019-05-06T01:26:53.849Z,0.0778
2019-05-06T01:27:56.835Z,0.0778
2019-05-06T01:28:59.821Z,0.0351
2019-05-06T01:30:04.401Z,0.0084
2019-05-06T01:31:07.766Z,0.0511
2019-05-06T01:32:10.941Z,0.0645
2019-05-06T01:33:14.901Z,0.1766
2019-05-06T01:34:18.384Z,0.3182
2019-05-06T01:35:21.846Z,0.3475
2019-05-06T01:36:26.916Z,0.2754
2019-05-06T01:37:49.935Z,0.3475
2019-05-06T01:38:53.796Z,0.1900
2019-05-06T01:39:56.878Z,0.1072
2019-05-06T01:41:00.979Z,0.1072
2019-05-06T01:42:04.820Z,0.1900
2019-05-06T01:43:07.191Z,0.3048
2019-05-06T01:44:10.863Z,0.2327
2019-05-06T01:45:15.166Z,0.2888
2019-05-06T01:46:18.863Z,0.3342
2019-05-06T01:47:23.793Z,0.3048
2019-05-06T01:48:27.436Z,0.3635
2019-05-06T01:49:30.203Z,0.4891
2019-05-06T01:50:34.443Z,0.4757
2019-05-06T01:51:37.179Z,0.3342
2019-05-06T01:52:40.187Z,0.2460
2019-05-06T01:53:44.783Z,0.2460
2019-05-06T01:54:47.265Z,0.2193
2019-05-06T01:55:50.802Z,0.1633
2019-05-06T01:56:53.863Z,0.2460
2019-05-06T01:57:57.027Z,0.3048
2019-05-06T01:59:00.820Z,0.2754
2019-05-06T02:00:04.843Z,0.2621
2019-05-06T02:01:08.950Z,0.3342
2019-05-06T02:02:14.344Z,0.2621
2019-05-06T02:03:17.861Z,0.1499
2019-05-06T02:04:20.908Z,0.0912
2019-05-06T02:05:24.901Z,0.0778
2019-05-06T02:06:28.228Z,0.1499
2019-05-06T02:07:31.843Z,0.2060
2019-05-06T02:08:34.961Z,0.2060
2019-05-06T02:09:38.872Z,0.1900
2019-05-06T02:10:43.583Z,0.1900
2019-05-06T02:11:48.128Z,0.2888
2019-05-06T02:12:50.190Z,0.2754
2019-05-06T02:13:53.951Z,0.2621
2019-05-06T02:14:57.914Z,0.1339
2019-05-06T02:16:03.889Z,0.0645
2019-05-06T02:17:07.940Z,0.1072
2019-05-06T02:18:11.171Z,0.0351
2019-05-06T02:19:14.960Z,-0.0076
2019-05-06T02:20:18.864Z,-0.1064
2019-05-06T02:21:24.530Z,-0.0904
2019-05-06T02:22:29.866Z,-0.1892
2019-05-06T02:23:33.865Z,-0.0343
2019-05-06T02:24:37.854Z,-0.0637
2019-05-06T02:25:40.902Z,-0.0477
2019-05-06T02:26:44.525Z,-0.1198
2019-05-06T02:27:47.864Z,-0.0076
2019-05-06T02:28:51.288Z,0.0645
2019-05-06T02:29:54.382Z,0.0511
2019-05-06T02:30:57.201Z,0.0912
2019-05-06T02:32:16.049Z,0.1205
2019-05-06T02:33:08.210Z,0.1339
2019-05-06T02:34:11.191Z,0.0912
2019-05-06T02:35:14.940Z,0.1205
2019-05-06T02:36:18.203Z,0.0778
2019-05-06T02:37:21.185Z,0.0511
2019-05-06T02:38:33.267Z,0.0351
2019-05-06T02:39:34.125Z,0.0912
2019-05-06T02:40:37.862Z,0.1339
2019-05-06T02:41:39.880Z,0.0778
2019-05-06T02:42:47.909Z,0.1072
2019-05-06T02:43:54.168Z,0.1766
2019-05-06T02:44:58.118Z,0.1205
2019-05-06T02:46:03.950Z,0.1072
2019-05-06T02:47:06.818Z,0.2060
2019-05-06T02:48:09.852Z,0.1499
2019-05-06T02:49:13.308Z,0.1499
2019-05-06T02:50:18.073Z,0.1339
2019-05-06T02:51:24.364Z,0.0778
2019-05-06T02:52:27.866Z,0.0351
2019-05-06T02:53:33.409Z,-0.0210
2019-05-06T02:54:36.867Z,-0.0477
2019-05-06T02:55:42.830Z,-0.1465
2019-05-06T02:56:46.826Z,-0.2613
2019-05-06T02:57:49.200Z,-0.2747
2019-05-06T02:58:53.698Z,-0.1198
2019-05-06T02:59:58.215Z,-0.0343
2019-05-06T03:01:03.554Z,0.0351
2019-05-06T03:02:06.196Z,-0.0210
2019-05-06T03:03:09.881Z,-0.0343
2019-05-06T03:04:13.172Z,-0.0343
2019-05-06T03:05:16.194Z,-0.0477
2019-05-06T03:06:19.315Z,-0.0076
2019-05-06T03:07:23.329Z,0.0217
2019-05-06T03:08:26.193Z,-0.0771
2019-05-06T03:09:29.245Z,-0.1064
2019-05-06T03:10:33.008Z,-0.1331
2019-05-06T03:11:36.204Z,-0.1465
2019-05-06T03:12:39.200Z,-0.1064
2019-05-06T03:13:43.703Z,-0.1198
2019-05-06T03:14:47.849Z,-0.2186
2019-05-06T03:15:53.749Z,-0.2186
2019-05-06T03:16:57.802Z,-0.2052
2019-05-06T03:18:03.204Z,-0.2453
2019-05-06T03:19:06.908Z,-0.2453
2019-05-06T03:20:13.215Z,-0.2319
2019-05-06T03:21:16.819Z,-0.2319
2019-05-06T03:22:19.939Z,-0.3174
2019-05-06T03:23:23.806Z,-0.2613
2019-05-06T03:24:26.943Z,-0.2747
2019-05-06T03:25:33.138Z,-0.3868
2019-05-06T03:26:36.853Z,-0.4749
2019-05-06T03:27:39.936Z,-0.4883
2019-05-06T03:28:44.266Z,-0.4429
2019-05-06T03:29:47.938Z,-0.5604
2019-05-06T03:30:56.185Z,-0.5737
2019-05-06T03:31:59.939Z,-0.4883
2019-05-06T03:34:35.249Z,-0.5871
2019-05-06T03:35:40.400Z,-0.5177
2019-05-06T03:36:34.637Z,-0.5604
2019-05-06T03:37:38.196Z,-0.5177
2019-05-06T03:38:43.131Z,-0.4002
2019-05-06T03:39:47.009Z,-0.4749
2019-05-06T03:40:53.546Z,-0.4162
2019-05-06T03:41:56.231Z,-0.3601
2019-05-06T03:43:02.635Z,-0.4162
2019-05-06T03:44:05.208Z,-0.3601
2019-05-06T03:45:08.200Z,-0.3735
2019-05-06T03:46:13.979Z,-0.4295
2019-05-06T03:47:18.040Z,-0.3014
2019-05-06T03:48:23.754Z,-0.2613
2019-05-06T03:49:27.818Z,-0.3174
2019-05-06T03:50:33.500Z,-0.2747
2019-05-06T03:51:36.187Z,-0.1759
2019-05-06T03:52:42.900Z,-0.2186
2019-05-06T03:53:46.891Z,-0.2880
2019-05-06T03:54:50.211Z,-0.3014
2019-05-06T03:55:54.112Z,-0.3307
2019-05-06T03:56:57.900Z,-0.2880
2019-05-06T03:58:03.904Z,-0.2052
2019-05-06T03:59:07.872Z,-0.1465
2019-05-06T04:00:13.279Z,-0.2186
2019-05-06T04:01:18.903Z,-0.1625
2019-05-06T04:02:24.004Z,-0.1892
2019-05-06T04:03:42.427Z,-0.2186
2019-05-06T04:04:35.891Z,-0.0771
2019-05-06T04:05:39.918Z,0.0351
2019-05-06T04:06:43.910Z,0.0645
2019-05-06T04:07:48.016Z,-0.0343
2019-05-06T04:08:52.899Z,-0.0343
2019-05-06T04:09:56.981Z,-0.0076
2019-05-06T04:11:03.165Z,0.0217
2019-05-06T04:12:06.874Z,0.0511
2019-05-06T04:13:09.876Z,0.0912
2019-05-06T04:14:14.216Z,0.1072
2019-05-06T04:15:17.204Z,0.1205
2019-05-06T04:16:22.788Z,0.1072
2019-05-06T04:17:27.191Z,0.0511
2019-05-06T04:18:33.185Z,0.0511
2019-05-06T04:19:36.800Z,0.1072
2019-05-06T04:20:39.837Z,0.1205
2019-05-06T04:21:43.643Z,0.0912
2019-05-06T04:22:46.869Z,0.1339
2019-05-06T04:23:53.202Z,0.1766
2019-05-06T04:24:55.886Z,0.2460
2019-05-06T04:25:59.927Z,0.2193
2019-05-06T04:27:03.962Z,0.2621
2019-05-06T04:28:06.834Z,0.3342
2019-05-06T04:29:08.172Z,0.3903
2019-05-06T04:30:13.575Z,0.3903
2019-05-06T04:31:16.910Z,0.4063
2019-05-06T04:32:23.363Z,0.4063
2019-05-06T04:33:26.863Z,0.4196
2019-05-06T04:34:29.893Z,0.4463
2019-05-06T04:35:33.921Z,0.4757
2019-05-06T04:36:37.886Z,0.5051
2019-05-06T04:37:42.945Z,0.5184
2019-05-06T04:38:46.890Z,0.5451
2019-05-06T04:39:52.965Z,0.5879
2019-05-06T04:40:57.784Z,0.6600
2019-05-06T04:42:03.463Z,0.6867
2019-05-06T04:43:06.550Z,0.7294
2019-05-06T04:44:13.548Z,0.7855
2019-05-06T04:45:17.955Z,0.7588
2019-05-06T04:46:23.664Z,0.7588
2019-05-06T04:47:27.146Z,0.7988
2019-05-06T04:48:32.960Z,0.8576
2019-05-06T04:49:36.854Z,0.8148
2019-05-06T04:50:39.869Z,0.8576
2019-05-06T04:51:43.426Z,0.8976
2019-05-06T04:52:46.768Z,0.9564
2019-05-06T04:53:53.426Z,0.9136
2019-05-06T04:54:57.747Z,0.9564
2019-05-06T04:56:03.852Z,0.9831
2019-05-06T04:57:07.215Z,1.0685
2019-05-06T04:58:13.140Z,1.0952
2019-05-06T04:59:17.821Z,1.1139
2019-05-06T05:00:20.158Z,1.1967
2019-05-06T05:01:23.847Z,1.1540
2019-05-06T05:02:26.814Z,1.2127
2019-05-06T05:03:29.176Z,1.2394
2019-05-06T05:04:35.793Z,1.3115
2019-05-06T05:05:40.096Z,1.3809
2019-05-06T05:06:43.819Z,1.5652
2019-05-06T05:07:46.979Z,1.6640
2019-05-06T05:08:50.194Z,1.6640
2019-05-06T05:09:53.867Z,1.5919
2019-05-06T05:10:56.860Z,1.4103
2019-05-06T05:12:02.495Z,1.5919
2019-05-06T05:13:05.862Z,1.3676
2019-05-06T05:14:08.849Z,1.2688
2019-05-06T05:15:12.012Z,1.2821
2019-05-06T05:16:15.955Z,1.3676
2019-05-06T05:17:19.910Z,1.2955
2019-05-06T05:18:22.798Z,1.2688
2019-05-06T05:19:25.873Z,1.2127
2019-05-06T05:20:38.239Z,1.3249
2019-05-06T05:21:36.893Z,1.2955
2019-05-06T05:22:42.225Z,1.3249
2019-05-06T05:23:46.082Z,1.2688
2019-05-06T05:24:51.941Z,1.3809
2019-05-06T05:25:55.869Z,1.4664
2019-05-06T05:27:00.076Z,1.3115
2019-05-06T05:28:03.903Z,1.3676
2019-05-06T05:29:06.975Z,1.2127
2019-05-06T05:30:12.430Z,1.3249
2019-05-06T05:31:15.873Z,1.2261
2019-05-06T05:32:18.939Z,1.2821
2019-05-06T05:33:22.828Z,1.2528
2019-05-06T05:34:37.105Z,1.2821
2019-05-06T05:35:33.934Z,1.5091
2019-05-06T05:36:37.899Z,1.6052
2019-05-06T05:37:41.961Z,1.7041
2019-05-06T05:38:46.352Z,1.7334
2019-05-06T05:39:49.217Z,1.8456
2019-05-06T05:40:52.507Z,1.9764
2019-05-06T05:41:55.209Z,2.3556
2019-05-06T05:42:58.196Z,2.2862
2019-05-06T05:44:02.395Z,2.3983
2019-05-06T05:45:05.185Z,2.4838
2019-05-06T05:46:08.198Z,2.6974
2019-05-06T05:47:12.382Z,3.0365
2019-05-06T05:48:15.746Z,2.9805
2019-05-06T05:49:21.617Z,2.8817
2019-05-06T05:50:25.190Z,2.7535
2019-05-06T05:51:29.234Z,2.8950
2019-05-06T05:52:32.910Z,2.7268
2019-05-06T05:53:36.171Z,2.7962
2019-05-06T05:54:39.187Z,2.7962
2019-05-06T05:55:42.437Z,2.9805
2019-05-06T05:56:45.957Z,3.1781
2019-05-06T05:57:49.284Z,3.1781
2019-05-06T05:58:54.381Z,3.2048
2019-05-06T05:59:57.845Z,3.2769
2019-05-06T06:01:00.797Z,3.3330
2019-05-06T06:02:04.095Z,3.8003
2019-05-06T06:03:07.497Z,4.0967
2019-05-06T06:04:12.876Z,4.0112
2019-05-06T06:05:16.882Z,3.9551
2019-05-06T06:06:22.129Z,3.9551
2019-05-06T06:07:25.802Z,4.0673
2019-05-06T06:08:29.040Z,4.2836
2019-05-06T06:09:32.882Z,3.7736
2019-05-06T06:10:37.020Z,3.7575
2019-05-06T06:11:42.966Z,3.3890
2019-05-06T06:12:47.535Z,3.5466
2019-05-06T06:13:52.283Z,3.4451
2019-05-06T06:14:56.422Z,4.2088
2019-05-06T06:15:59.908Z,3.8296
2019-05-06T06:17:04.000Z,4.1394
2019-05-06T06:18:07.934Z,4.2248
2019-05-06T06:19:12.689Z,4.3397
2019-05-06T06:20:15.850Z,4.6494
2019-05-06T06:21:25.661Z,4.9325
2019-05-06T06:22:27.019Z,4.8177
2019-05-06T06:23:32.408Z,5.2155
2019-05-06T06:24:35.850Z,5.4986
2019-05-06T06:25:38.869Z,5.3143
2019-05-06T06:26:42.972Z,5.2316
2019-05-06T06:27:46.371Z,5.2876
2019-05-06T06:28:52.131Z,5.1167
2019-05-06T06:29:55.748Z,5.2449
2019-05-06T06:30:58.176Z,4.8898
2019-05-06T06:32:03.134Z,4.9325
2019-05-06T06:33:06.319Z,4.7776
2019-05-06T06:34:09.176Z,4.9165
2019-05-06T06:35:14.754Z,4.8470
2019-05-06T06:36:17.181Z,5.2316
2019-05-06T06:37:19.296Z,5.2583
2019-05-06T06:38:23.874Z,5.3010
2019-05-06T06:39:27.213Z,6.4599
2019-05-06T06:40:30.204Z,6.0380
2019-05-06T06:41:33.180Z,5.9098
2019-05-06T06:42:36.202Z,6.2623
2019-05-06T06:43:39.189Z,6.2490
2019-05-06T06:44:42.773Z,6.6468
2019-05-06T06:45:46.736Z,8.2303
2019-05-06T06:46:49.196Z,8.5000
2019-05-06T06:47:52.289Z,8.6549
2019-05-06T06:48:57.728Z,7.9313
2019-05-06T06:50:02.822Z,9.0501
2019-05-06T06:51:06.823Z,8.1582
2019-05-06T06:52:12.372Z,7.5521
2019-05-06T06:53:18.246Z,6.8017
2019-05-06T06:55:42.710Z,7.0127
2019-05-06T06:56:46.151Z,7.0554
2019-05-06T06:57:49.318Z,6.4733
2019-05-06T06:58:52.983Z,6.2490
2019-05-06T06:59:58.878Z,7.4105
2019-05-06T07:01:03.291Z,9.3893
2019-05-06T07:02:07.191Z,8.0167
2019-05-06T07:03:12.276Z,8.9807
2019-05-06T07:04:16.491Z,9.2210
2019-05-06T07:05:25.449Z,9.5869
2019-05-06T07:06:33.193Z,8.9940
2019-05-06T07:07:43.442Z,10.0835
2019-05-06T07:08:45.685Z,10.7351
2019-05-06T07:09:48.174Z,10.3960
2019-05-06T07:10:52.543Z,9.3893
2019-05-06T07:11:55.187Z,9.0928
2019-05-06T07:12:58.187Z,9.4453
2019-05-06T07:14:02.597Z,8.7671
2019-05-06T07:15:05.231Z,9.3065
2019-05-06T07:16:08.173Z,7.7497
2019-05-06T07:17:13.205Z,9.2771
2019-05-06T07:18:22.430Z,8.3158
2019-05-06T07:19:25.986Z,8.7671
2019-05-06T07:20:32.458Z,7.6642
2019-05-06T07:21:36.356Z,7.5361
2019-05-06T07:22:42.238Z,8.2036
2019-05-06T07:23:46.127Z,8.6122
2019-05-06T07:24:50.122Z,8.9220
2019-05-06T07:25:54.249Z,8.4413
2019-05-06T07:26:57.970Z,8.8792
2019-05-06T07:28:02.966Z,8.9673
2019-05-06T07:29:16.828Z,9.6002
2019-05-06T07:30:17.231Z,9.5174
2019-05-06T07:31:23.741Z,9.0368
2019-05-06T07:32:29.323Z,9.4747
2019-05-06T07:33:33.435Z,9.7871
2019-05-06T07:34:36.220Z,9.0101
2019-05-06T07:35:41.707Z,8.7671
2019-05-06T07:36:49.021Z,8.3158
2019-05-06T07:37:53.182Z,8.1743
2019-05-06T07:38:56.208Z,9.3465
2019-05-06T07:39:59.264Z,9.8165
2019-05-06T07:41:04.525Z,8.7804
2019-05-06T07:42:09.253Z,9.1222
2019-05-06T07:43:12.746Z,9.9981
2019-05-06T07:44:15.221Z,9.1917
2019-05-06T07:45:18.176Z,9.0101
2019-05-06T07:46:23.556Z,9.8432
2019-05-06T07:47:27.198Z,10.8206
2019-05-06T07:48:31.996Z,10.1263
2019-05-06T07:49:35.877Z,9.9287
2019-05-06T07:50:39.142Z,9.8859
2019-05-06T07:51:42.221Z,9.2210
2019-05-06T07:53:13.283Z,9.1783
2019-05-06T07:54:17.199Z,10.0542
2019-05-06T07:55:22.911Z,10.0702
2019-05-06T07:56:32.075Z,9.8592
2019-05-06T07:57:36.454Z,9.9287
2019-05-06T07:58:43.435Z,9.0661
2019-05-06T07:59:46.944Z,8.7537
2019-05-06T08:00:56.986Z,8.9086
2019-05-06T08:02:02.120Z,9.5602
2019-05-06T08:03:09.459Z,9.6429
2019-05-06T08:04:13.506Z,8.4840
2019-05-06T08:05:16.172Z,10.2251
2019-05-06T08:06:19.194Z,10.2251
2019-05-06T08:07:22.454Z,10.8339
2019-05-06T08:08:26.229Z,10.9033
2019-05-06T08:09:29.188Z,9.9981
2019-05-06T08:10:33.194Z,9.4453
2019-05-06T08:11:36.204Z,9.3065
2019-05-06T08:12:39.186Z,10.0702
2019-05-06T08:13:43.530Z,9.4320
2019-05-06T08:14:47.542Z,9.7604
2019-05-06T08:15:52.947Z,9.5735
2019-05-06T08:16:56.170Z,10.1823
2019-05-06T08:17:59.407Z,11.1757
2019-05-06T08:19:02.750Z,10.6790
2019-05-06T08:20:05.184Z,10.6924
2019-05-06T08:21:08.179Z,9.1356
2019-05-06T08:22:12.040Z,10.6497
2019-05-06T08:23:17.768Z,10.3105
2019-05-06T08:24:20.172Z,10.4814
2019-05-06T08:25:23.187Z,10.6497
2019-05-06T08:26:26.186Z,11.4561
2019-05-06T08:27:29.164Z,11.4134
2019-05-06T08:28:40.463Z,11.3573
2019-05-06T08:29:42.331Z,10.8633
2019-05-06T08:30:45.189Z,11.0315
2019-05-06T08:31:48.182Z,10.3506
2019-05-06T08:32:52.830Z,10.4253
2019-05-06T08:33:56.963Z,8.8365
2019-05-06T08:35:00.223Z,9.1089
2019-05-06T08:36:11.363Z,9.1783
2019-05-06T08:37:12.036Z,10.9754
2019-05-06T08:38:15.189Z,11.7258
2019-05-06T08:39:17.183Z,11.4721
2019-05-06T08:40:22.628Z,11.8833
2019-05-06T08:41:28.193Z,9.8859
2019-05-06T08:42:32.931Z,8.7110
2019-05-06T08:43:36.171Z,8.8098
2019-05-06T08:44:39.169Z,8.4840
2019-05-06T08:45:42.273Z,8.2170
2019-05-06T08:46:45.182Z,7.6776
2019-05-06T08:47:48.252Z,7.2663
2019-05-06T08:48:52.515Z,7.4666
2019-05-06T08:49:55.907Z,8.1876
2019-05-06T08:51:09.242Z,8.4279
2019-05-06T08:52:32.232Z,7.9473
2019-05-06T08:53:35.182Z,8.6255
2019-05-06T08:54:38.190Z,8.5000
2019-05-06T08:55:42.207Z,8.6255
2019-05-06T08:56:46.480Z,9.9847
2019-05-06T08:58:10.400Z,10.3105
2019-05-06T08:59:15.859Z,10.9327
2019-05-06T09:00:18.206Z,12.1370
2019-05-06T09:01:22.373Z,10.9754
2019-05-06T09:02:25.172Z,10.2945
2019-05-06T09:03:29.320Z,9.1222
2019-05-06T09:04:32.262Z,9.6002
2019-05-06T09:05:35.204Z,9.3198
2019-05-06T09:06:38.200Z,11.3012
2019-05-06T09:07:43.002Z,11.7712
2019-05-06T09:08:46.239Z,12.7726
2019-05-06T09:09:49.394Z,12.0089
2019-05-06T09:10:52.240Z,12.0089
2019-05-06T09:11:55.178Z,10.2811
2019-05-06T09:12:58.176Z,10.3506
2019-05-06T09:14:03.379Z,9.6590
2019-05-06T09:16:24.528Z,9.9554
2019-05-06T09:18:45.192Z,9.0928
2019-05-06T09:20:25.544Z,9.1489
2019-05-06T09:21:27.197Z,8.6255
2019-05-06T09:22:32.435Z,8.6816
2019-05-06T09:23:35.175Z,8.1422
2019-05-06T09:24:42.562Z,8.0167
2019-05-06T09:25:46.181Z,8.5267
2019-05-06T09:26:52.189Z,8.4840
2019-05-06T09:27:55.203Z,8.5000
2019-05-06T09:28:58.178Z,8.2303
2019-05-06T09:30:03.247Z,8.3585
2019-05-06T09:31:09.721Z,8.1743
2019-05-06T09:32:13.921Z,8.5561
2019-05-06T09:33:17.302Z,8.6389
2019-05-06T09:34:28.195Z,8.9540
2019-05-06T09:35:32.929Z,8.1876
2019-05-06T09:36:46.932Z,7.7897
2019-05-06T09:37:53.499Z,8.1022
2019-05-06T09:38:56.202Z,8.6549
2019-05-06T09:40:02.878Z,8.7243
2019-05-06T09:41:09.022Z,8.7537
2019-05-06T09:42:14.511Z,8.7110
2019-05-06T09:43:18.154Z,8.5000
2019-05-06T09:44:26.926Z,8.4413
2019-05-06T09:45:33.007Z,8.7110
2019-05-06T09:46:39.129Z,8.4573
2019-05-06T09:47:42.518Z,8.7110
2019-05-06T09:48:46.482Z,8.9220
2019-05-06T09:49:49.189Z,8.5134
2019-05-06T09:50:53.807Z,8.5828
2019-05-06T09:51:57.169Z,9.1089
2019-05-06T09:53:02.474Z,9.6162
2019-05-06T09:54:05.199Z,10.0542
2019-05-06T09:55:08.191Z,9.5308
2019-05-06T09:56:13.154Z,9.1783
2019-05-06T09:57:19.568Z,9.9420
2019-05-06T09:58:24.283Z,11.1463
2019-05-06T09:59:27.196Z,11.1330
2019-05-06T10:00:32.732Z,11.5122
2019-05-06T10:01:36.243Z,11.0475
2019-05-06T10:02:39.196Z,9.3759
2019-05-06T10:03:42.913Z,9.5602
2019-05-06T10:04:47.713Z,9.9981
2019-05-06T10:05:53.638Z,10.1396
2019-05-06T10:07:02.676Z,10.0408
2019-05-06T10:08:08.541Z,10.2384
2019-05-06T10:09:15.714Z,10.0141
2019-05-06T10:10:22.243Z,9.9714
2019-05-06T10:11:25.190Z,9.8859
2019-05-06T10:12:28.190Z,10.5802
2019-05-06T10:13:32.692Z,10.3372
2019-05-06T10:14:36.297Z,10.1129
2019-05-06T10:15:39.242Z,9.9153
2019-05-06T10:16:42.955Z,9.5014
2019-05-06T10:17:47.141Z,9.8005
2019-05-06T10:18:52.493Z,10.1396
2019-05-06T10:19:55.253Z,10.1396
2019-05-06T10:21:00.586Z,10.9594
2019-05-06T10:22:03.636Z,10.2117
2019-05-06T10:23:07.914Z,9.6883
2019-05-06T10:24:11.195Z,9.7604
2019-05-06T10:25:15.548Z,9.7017
2019-05-06T10:26:18.996Z,9.8993
2019-05-06T10:27:23.536Z,9.4053
2019-05-06T10:28:27.344Z,9.1089
2019-05-06T10:29:32.497Z,8.8365
2019-05-06T10:30:35.192Z,9.0928
2019-05-06T10:31:43.272Z,9.7604
2019-05-06T10:32:46.200Z,9.6883
2019-05-06T10:33:59.433Z,10.4681
2019-05-06T10:35:04.021Z,10.7218
2019-05-06T10:36:07.241Z,10.9461
2019-05-06T10:37:15.446Z,10.6069
2019-05-06T10:38:18.206Z,10.9754
2019-05-06T10:39:22.904Z,11.3012
2019-05-06T10:40:26.231Z,11.6537
2019-05-06T10:41:29.329Z,11.2451
2019-05-06T10:42:36.580Z,11.3439
2019-05-06T10:43:43.315Z,11.4561
2019-05-06T10:44:49.800Z,10.7057
2019-05-06T10:45:54.264Z,10.5081
2019-05-06T10:46:57.566Z,9.9981
2019-05-06T10:47:59.199Z,10.7778
2019-05-06T10:49:02.660Z,10.6790
2019-05-06T10:50:05.227Z,10.5081
2019-05-06T10:51:08.239Z,10.3105
2019-05-06T10:52:12.698Z,10.6924
2019-05-06T10:53:15.249Z,10.6657
2019-05-06T10:54:18.176Z,10.7645
2019-05-06T10:55:23.209Z,10.5936
2019-05-06T10:56:27.553Z,11.4561
2019-05-06T10:57:32.629Z,11.0609
2019-05-06T10:58:36.299Z,10.9461
2019-05-06T10:59:39.205Z,11.5415
2019-05-06T11:00:42.592Z,11.4294
2019-05-06T11:01:44.314Z,11.7712
2019-05-06T11:02:47.210Z,10.9327
2019-05-06T11:03:52.400Z,10.8339
2019-05-06T11:04:56.051Z,10.6657
2019-05-06T11:05:59.639Z,11.3439
2019-05-06T11:07:04.096Z,12.1931
2019-05-06T11:08:08.515Z,12.3774
2019-05-06T11:09:13.485Z,11.6110
2019-05-06T11:10:23.773Z,10.6497
2019-05-06T11:11:32.622Z,11.0021
2019-05-06T11:12:32.607Z,11.1757
2019-05-06T11:13:35.197Z,11.5976
2019-05-06T11:14:38.184Z,10.4948
2019-05-06T11:15:43.462Z,10.6230
2019-05-06T11:16:46.211Z,10.0275
2019-05-06T11:17:49.210Z,9.4614
2019-05-06T11:18:53.556Z,9.5735
2019-05-06T11:19:56.340Z,9.9714
2019-05-06T11:20:58.202Z,10.5241
2019-05-06T11:22:03.388Z,10.1823
2019-05-06T11:23:09.000Z,10.6069
2019-05-06T11:24:12.386Z,10.1823
2019-05-06T11:25:16.335Z,9.7177
2019-05-06T11:26:19.248Z,9.7444
2019-05-06T11:27:28.830Z,10.1823
2019-05-06T11:28:34.954Z,9.8432
2019-05-06T11:29:38.216Z,10.2518
2019-05-06T11:30:43.620Z,10.1530
2019-05-06T11:31:48.007Z,10.3506
2019-05-06T11:32:54.336Z,10.0141
2019-05-06T11:33:58.254Z,9.5308
2019-05-06T11:35:03.618Z,9.6883
2019-05-06T11:36:09.450Z,9.6750
2019-05-06T11:37:14.811Z,10.5241
2019-05-06T11:38:18.172Z,9.5441
2019-05-06T11:39:23.340Z,9.5174
2019-05-06T11:40:32.826Z,10.2678
2019-05-06T11:41:39.318Z,9.7017
2019-05-06T11:42:43.671Z,9.4881
2019-05-06T11:43:46.192Z,9.7311
2019-05-06T11:44:48.213Z,9.3465
2019-05-06T11:45:52.696Z,9.1783
2019-05-06T11:46:57.716Z,8.5695
2019-05-06T11:48:03.556Z,9.0928
2019-05-06T11:49:06.301Z,9.2477
2019-05-06T11:50:08.211Z,9.3198
2019-05-06T11:51:12.800Z,9.7871
2019-05-06T11:53:32.571Z,9.8005
2019-05-06T11:55:49.999Z,10.1263
2019-05-06T11:56:58.093Z,10.3372
2019-05-06T11:58:02.569Z,10.1823
2019-05-06T11:59:05.202Z,10.2518
2019-05-06T12:00:00.197Z,10.5802
2019-05-06T12:01:03.204Z,10.4387
2019-05-06T12:02:06.181Z,9.2210
2019-05-06T12:03:09.467Z,9.8726
2019-05-06T12:03:52.027Z,10.0969
2019-05-06T12:04:55.192Z,10.4120
2019-05-06T12:05:58.199Z,9.8859
2019-05-06T12:07:10.488Z,10.4520
2019-05-06T12:08:09.188Z,11.0021
2019-05-06T12:09:16.526Z,12.0943
2019-05-06T12:10:19.179Z,11.5122
2019-05-06T12:10:57.178Z,11.6110
2019-05-06T12:12:00.191Z,12.2919
2019-05-06T12:13:03.246Z,13.1144
2019-05-06T12:14:06.483Z,12.1077
2019-05-06T12:15:09.275Z,11.7712
2019-05-06T12:16:14.113Z,10.5669
2019-05-06T12:17:17.198Z,11.3012
2019-05-06T12:18:23.166Z,11.3867
2019-05-06T12:19:27.287Z,11.6964
2019-05-06T12:20:32.924Z,11.1463
2019-05-06T12:21:36.174Z,11.7712
2019-05-06T12:22:39.190Z,11.9261
2019-05-06T12:23:44.768Z,11.5709
2019-05-06T12:24:48.229Z,11.9261
2019-05-06T12:25:52.934Z,10.8473
2019-05-06T12:26:56.189Z,10.7057
2019-05-06T12:27:59.236Z,10.7218
2019-05-06T12:29:02.444Z,10.3826
2019-05-06T12:30:05.538Z,10.8633
2019-05-06T12:31:08.222Z,10.0702
2019-05-06T12:32:12.916Z,10.6230
2019-05-06T12:33:16.307Z,10.6657
2019-05-06T12:34:19.179Z,10.9461
2019-05-06T12:35:22.281Z,11.4721
2019-05-06T12:36:25.193Z,11.1891
2019-05-06T12:37:28.230Z,10.2251
2019-05-06T12:38:32.269Z,9.9981
2019-05-06T12:39:35.233Z,10.0702
2019-05-06T12:40:38.900Z,9.8165
2019-05-06T12:41:43.086Z,10.1129
2019-05-06T12:42:46.228Z,9.4881
2019-05-06T12:43:49.193Z,8.8792
2019-05-06T12:44:52.885Z,8.6549
2019-05-06T12:45:56.359Z,8.8926
2019-05-06T12:46:59.878Z,8.8365
2019-05-06T13:04:51.276Z,8.9353
2019-05-06T13:06:48.220Z,8.7804
2019-05-06T13:11:58.196Z,9.5441
2019-05-06T13:29:38.397Z,9.7738
2019-05-06T13:34:48.208Z,10.0702
2019-05-06T13:54:28.258Z,9.5869
2019-05-06T13:58:37.924Z,9.7177
2019-05-06T14:39:09.203Z,11.6110
2019-05-06T15:00:59.186Z,15.5070
2019-05-06T15:10:23.337Z,10.9754
2019-05-06T15:29:08.204Z,9.7177
2019-05-06T15:36:23.174Z,9.4614
2019-05-06T15:38:28.223Z,9.6002
2019-05-06T15:57:08.269Z,8.9353
2019-05-06T16:08:32.851Z,8.5000
2019-05-06T16:26:08.224Z,8.7537
2019-05-06T16:34:28.192Z,8.5267
2019-05-06T16:41:48.185Z,8.4012
2019-05-06T17:11:58.427Z,7.8325
2019-05-06T17:17:08.883Z,7.5361
2019-05-06T17:23:27.941Z,7.2663
2019-05-06T17:43:08.192Z,6.6602
2019-05-06T17:57:48.200Z,6.4038
2019-05-06T18:08:09.200Z,6.3478
2019-05-06T18:12:18.219Z,6.1635
2019-05-06T18:26:48.989Z,6.2062
2019-05-06T18:30:58.208Z,5.9953
2019-05-06T18:40:18.228Z,5.7523
2019-05-06T19:00:59.220Z,5.7229
2019-05-06T19:05:08.184Z,5.6401
2019-05-06T19:40:28.304Z,5.1595
2019-05-06T19:52:58.214Z,4.9031
2019-05-06T19:57:08.229Z,4.9031